sensor_id;sensor_type;location;lat;lon;timestamp;P1;durP1;ratioP1;P2;durP2;ratioP2
36009;SDS011;22076;52.182;5.404;2022-12-08T00:02:24;6.68;;;2.67;;
36009;SDS011;22076;52.182;5.404;2022-12-08T00:04:51;6.53;;;2.90;;
36009;SDS011;22076;52.182;5.404;2022-12-08T00:07:37;6.30;;;3.03;;
36009;SDS011;22076;52.182;5.404;2022-12-08T00:10:21;5.25;;;3.17;;
36009;SDS011;22076;52.182;5.404;2022-12-08T00:12:47;10.02;;;3.97;;
36009;SDS011;22076;52.182;5.404;2022-12-08T00:15:15;6.18;;;3.17;;
36009;SDS011;22076;52.182;5.404;2022-12-08T00:17:42;7.15;;;3.25;;
36009;SDS011;22076;52.182;5.404;2022-12-08T00:20:09;5.15;;;2.60;;
36009;SDS011;22076;52.182;5.404;2022-12-08T00:22:36;8.05;;;3.35;;
36009;SDS011;22076;52.182;5.404;2022-12-08T00:25:02;5.32;;;3.50;;
36009;SDS011;22076;52.182;5.404;2022-12-08T00:27:29;6.47;;;3.72;;
36009;SDS011;22076;52.182;5.404;2022-12-08T00:29:56;8.55;;;4.97;;
36009;SDS011;22076;52.182;5.404;2022-12-08T00:32:24;13.35;;;4.95;;
36009;SDS011;22076;52.182;5.404;2022-12-08T00:34:50;9.02;;;4.78;;
36009;SDS011;22076;52.182;5.404;2022-12-08T00:37:17;4.30;;;2.78;;
36009;SDS011;22076;52.182;5.404;2022-12-08T00:39:43;9.15;;;4.90;;
36009;SDS011;22076;52.182;5.404;2022-12-08T00:42:10;8.43;;;4.90;;
36009;SDS011;22076;52.182;5.404;2022-12-08T00:44:36;6.28;;;4.10;;
36009;SDS011;22076;52.182;5.404;2022-12-08T00:47:03;6.38;;;4.38;;
36009;SDS011;22076;52.182;5.404;2022-12-08T00:49:31;7.05;;;4.20;;
36009;SDS011;22076;52.182;5.404;2022-12-08T00:51:58;7.43;;;4.85;;
36009;SDS011;22076;52.182;5.404;2022-12-08T00:54:24;6.15;;;3.78;;
36009;SDS011;22076;52.182;5.404;2022-12-08T00:56:51;7.32;;;5.53;;
36009;SDS011;22076;52.182;5.404;2022-12-08T00:59:18;5.88;;;3.63;;
36009;SDS011;22076;52.182;5.404;2022-12-08T01:01:45;5.47;;;3.40;;
36009;SDS011;22076;52.182;5.404;2022-12-08T01:04:12;6.10;;;4.78;;
36009;SDS011;22076;52.182;5.404;2022-12-08T01:06:41;7.50;;;5.20;;
36009;SDS011;22076;52.182;5.404;2022-12-08T01:09:08;9.32;;;5.18;;
36009;SDS011;22076;52.182;5.404;2022-12-08T01:11:35;6.63;;;5.00;;
36009;SDS011;22076;52.182;5.404;2022-12-08T01:14:02;9.52;;;5.68;;
36009;SDS011;22076;52.182;5.404;2022-12-08T01:16:29;7.53;;;5.18;;
36009;SDS011;22076;52.182;5.404;2022-12-08T01:18:57;9.30;;;5.80;;
36009;SDS011;22076;52.182;5.404;2022-12-08T01:21:24;6.53;;;5.53;;
36009;SDS011;22076;52.182;5.404;2022-12-08T01:23:52;13.25;;;7.78;;
36009;SDS011;22076;52.182;5.404;2022-12-08T01:26:19;12.90;;;8.32;;
36009;SDS011;22076;52.182;5.404;2022-12-08T01:28:46;7.88;;;5.00;;
36009;SDS011;22076;52.182;5.404;2022-12-08T01:31:13;11.40;;;7.28;;
36009;SDS011;22076;52.182;5.404;2022-12-08T01:33:41;9.35;;;7.25;;
36009;SDS011;22076;52.182;5.404;2022-12-08T01:36:08;7.07;;;4.72;;
36009;SDS011;22076;52.182;5.404;2022-12-08T01:38:35;5.90;;;4.15;;
36009;SDS011;22076;52.182;5.404;2022-12-08T01:41:03;7.68;;;3.75;;
36009;SDS011;22076;52.182;5.404;2022-12-08T01:46:22;5.05;;;3.80;;
36009;SDS011;22076;52.182;5.404;2022-12-08T01:48:50;6.90;;;3.55;;
36009;SDS011;22076;52.182;5.404;2022-12-08T01:51:17;8.00;;;2.97;;
36009;SDS011;22076;52.182;5.404;2022-12-08T01:53:44;3.78;;;2.70;;
36009;SDS011;22076;52.182;5.404;2022-12-08T01:56:14;5.78;;;3.30;;
36009;SDS011;22076;52.182;5.404;2022-12-08T01:58:44;4.57;;;2.90;;
36009;SDS011;22076;52.182;5.404;2022-12-08T02:01:13;5.43;;;3.20;;
36009;SDS011;22076;52.182;5.404;2022-12-08T02:03:40;6.18;;;3.15;;
36009;SDS011;22076;52.182;5.404;2022-12-08T02:06:08;4.10;;;3.00;;
36009;SDS011;22076;52.182;5.404;2022-12-08T02:08:37;4.30;;;2.63;;
36009;SDS011;22076;52.182;5.404;2022-12-08T02:11:07;3.38;;;2.42;;
36009;SDS011;22076;52.182;5.404;2022-12-08T02:13:36;7.22;;;2.80;;
36009;SDS011;22076;52.182;5.404;2022-12-08T02:16:04;4.28;;;2.55;;
36009;SDS011;22076;52.182;5.404;2022-12-08T02:18:39;3.80;;;2.55;;
36009;SDS011;22076;52.182;5.404;2022-12-08T02:21:14;4.13;;;2.40;;
36009;SDS011;22076;52.182;5.404;2022-12-08T02:23:46;3.97;;;2.53;;
36009;SDS011;22076;52.182;5.404;2022-12-08T02:26:37;4.40;;;2.85;;
36009;SDS011;22076;52.182;5.404;2022-12-08T02:32:21;5.00;;;2.88;;
36009;SDS011;22076;52.182;5.404;2022-12-08T02:34:59;5.72;;;3.40;;
36009;SDS011;22076;52.182;5.404;2022-12-08T02:37:29;6.50;;;3.17;;
36009;SDS011;22076;52.182;5.404;2022-12-08T02:39:58;7.10;;;4.63;;
36009;SDS011;22076;52.182;5.404;2022-12-08T02:42:29;6.68;;;4.32;;
36009;SDS011;22076;52.182;5.404;2022-12-08T02:44:59;5.07;;;4.18;;
36009;SDS011;22076;52.182;5.404;2022-12-08T02:47:27;6.25;;;4.30;;
36009;SDS011;22076;52.182;5.404;2022-12-08T02:49:54;10.73;;;5.60;;
36009;SDS011;22076;52.182;5.404;2022-12-08T02:52:38;9.88;;;5.97;;
36009;SDS011;22076;52.182;5.404;2022-12-08T02:55:11;9.13;;;5.88;;
36009;SDS011;22076;52.182;5.404;2022-12-08T02:57:50;5.38;;;3.88;;
36009;SDS011;22076;52.182;5.404;2022-12-08T03:00:27;7.80;;;5.75;;
36009;SDS011;22076;52.182;5.404;2022-12-08T03:02:58;8.18;;;5.75;;
36009;SDS011;22076;52.182;5.404;2022-12-08T03:05:37;6.68;;;4.15;;
36009;SDS011;22076;52.182;5.404;2022-12-08T03:08:11;11.45;;;6.18;;
36009;SDS011;22076;52.182;5.404;2022-12-08T03:10:42;12.70;;;7.80;;
36009;SDS011;22076;52.182;5.404;2022-12-08T03:13:12;10.60;;;5.95;;
36009;SDS011;22076;52.182;5.404;2022-12-08T03:15:39;6.85;;;4.53;;
36009;SDS011;22076;52.182;5.404;2022-12-08T03:18:07;9.63;;;6.78;;
36009;SDS011;22076;52.182;5.404;2022-12-08T03:20:36;11.05;;;6.32;;
36009;SDS011;22076;52.182;5.404;2022-12-08T03:23:04;7.38;;;5.68;;
36009;SDS011;22076;52.182;5.404;2022-12-08T03:25:37;7.45;;;5.82;;
36009;SDS011;22076;52.182;5.404;2022-12-08T03:28:06;5.90;;;4.65;;
36009;SDS011;22076;52.182;5.404;2022-12-08T03:30:34;8.73;;;5.32;;
36009;SDS011;22076;52.182;5.404;2022-12-08T03:33:02;5.65;;;3.92;;
36009;SDS011;22076;52.182;5.404;2022-12-08T03:35:32;8.23;;;5.07;;
36009;SDS011;22076;52.182;5.404;2022-12-08T03:38:03;8.32;;;6.18;;
36009;SDS011;22076;52.182;5.404;2022-12-08T03:40:31;7.60;;;5.03;;
36009;SDS011;22076;52.182;5.404;2022-12-08T03:42:59;7.28;;;4.75;;
36009;SDS011;22076;52.182;5.404;2022-12-08T03:45:25;9.88;;;6.32;;
36009;SDS011;22076;52.182;5.404;2022-12-08T03:47:52;7.57;;;5.57;;
36009;SDS011;22076;52.182;5.404;2022-12-08T03:50:18;7.78;;;5.03;;
36009;SDS011;22076;52.182;5.404;2022-12-08T03:52:45;6.72;;;4.50;;
36009;SDS011;22076;52.182;5.404;2022-12-08T03:55:11;7.30;;;3.92;;
36009;SDS011;22076;52.182;5.404;2022-12-08T03:57:38;8.25;;;5.05;;
36009;SDS011;22076;52.182;5.404;2022-12-08T04:00:07;8.35;;;5.10;;
36009;SDS011;22076;52.182;5.404;2022-12-08T04:02:37;6.78;;;3.70;;
36009;SDS011;22076;52.182;5.404;2022-12-08T04:05:04;5.35;;;3.63;;
36009;SDS011;22076;52.182;5.404;2022-12-08T04:07:30;9.35;;;3.88;;
36009;SDS011;22076;52.182;5.404;2022-12-08T04:09:57;5.90;;;3.40;;
36009;SDS011;22076;52.182;5.404;2022-12-08T04:12:23;5.78;;;3.42;;
36009;SDS011;22076;52.182;5.404;2022-12-08T04:14:50;5.63;;;3.40;;
36009;SDS011;22076;52.182;5.404;2022-12-08T04:17:18;7.05;;;3.72;;
36009;SDS011;22076;52.182;5.404;2022-12-08T04:19:44;4.18;;;3.15;;
36009;SDS011;22076;52.182;5.404;2022-12-08T04:22:11;6.40;;;3.17;;
36009;SDS011;22076;52.182;5.404;2022-12-08T04:24:37;4.82;;;2.63;;
36009;SDS011;22076;52.182;5.404;2022-12-08T04:27:04;6.53;;;3.00;;
36009;SDS011;22076;52.182;5.404;2022-12-08T04:29:30;5.05;;;2.58;;
36009;SDS011;22076;52.182;5.404;2022-12-08T04:31:57;4.13;;;2.40;;
36009;SDS011;22076;52.182;5.404;2022-12-08T04:34:25;4.38;;;2.63;;
36009;SDS011;22076;52.182;5.404;2022-12-08T04:36:51;3.70;;;2.38;;
36009;SDS011;22076;52.182;5.404;2022-12-08T04:39:18;6.78;;;2.47;;
36009;SDS011;22076;52.182;5.404;2022-12-08T04:41:44;3.78;;;2.40;;
36009;SDS011;22076;52.182;5.404;2022-12-08T04:44:11;5.43;;;2.35;;
36009;SDS011;22076;52.182;5.404;2022-12-08T04:46:37;3.88;;;1.92;;
36009;SDS011;22076;52.182;5.404;2022-12-08T04:49:04;3.22;;;2.05;;
36009;SDS011;22076;52.182;5.404;2022-12-08T04:51:32;4.07;;;1.85;;
36009;SDS011;22076;52.182;5.404;2022-12-08T04:53:58;1.92;;;1.52;;
36009;SDS011;22076;52.182;5.404;2022-12-08T04:56:25;4.00;;;2.28;;
36009;SDS011;22076;52.182;5.404;2022-12-08T04:58:51;6.65;;;1.98;;
36009;SDS011;22076;52.182;5.404;2022-12-08T05:01:18;6.30;;;2.25;;
36009;SDS011;22076;52.182;5.404;2022-12-08T05:03:44;3.30;;;1.70;;
36009;SDS011;22076;52.182;5.404;2022-12-08T05:06:11;3.55;;;1.60;;
36009;SDS011;22076;52.182;5.404;2022-12-08T05:08:40;3.22;;;1.83;;
36009;SDS011;22076;52.182;5.404;2022-12-08T05:11:07;6.32;;;1.83;;
36009;SDS011;22076;52.182;5.404;2022-12-08T05:13:35;7.03;;;1.63;;
36009;SDS011;22076;52.182;5.404;2022-12-08T05:16:02;2.63;;;1.98;;
36009;SDS011;22076;52.182;5.404;2022-12-08T05:18:29;7.25;;;2.00;;
36009;SDS011;22076;52.182;5.404;2022-12-08T05:20:56;3.90;;;2.20;;
36009;SDS011;22076;52.182;5.404;2022-12-08T05:23:22;3.08;;;1.90;;
36009;SDS011;22076;52.182;5.404;2022-12-08T05:25:50;3.15;;;1.92;;
36009;SDS011;22076;52.182;5.404;2022-12-08T05:28:17;3.95;;;1.90;;
36009;SDS011;22076;52.182;5.404;2022-12-08T05:30:43;4.65;;;1.58;;
36009;SDS011;22076;52.182;5.404;2022-12-08T05:33:10;6.97;;;2.05;;
36009;SDS011;22076;52.182;5.404;2022-12-08T05:35:36;3.13;;;1.70;;
36009;SDS011;22076;52.182;5.404;2022-12-08T05:38:04;2.83;;;1.80;;
36009;SDS011;22076;52.182;5.404;2022-12-08T05:40:30;3.85;;;1.90;;
36009;SDS011;22076;52.182;5.404;2022-12-08T05:42:58;2.85;;;1.15;;
36009;SDS011;22076;52.182;5.404;2022-12-08T05:45:25;3.72;;;1.67;;
36009;SDS011;22076;52.182;5.404;2022-12-08T05:47:51;3.95;;;1.63;;
36009;SDS011;22076;52.182;5.404;2022-12-08T05:50:18;1.77;;;1.38;;
36009;SDS011;22076;52.182;5.404;2022-12-08T05:52:44;2.60;;;1.00;;
36009;SDS011;22076;52.182;5.404;2022-12-08T05:55:11;4.28;;;1.38;;
36009;SDS011;22076;52.182;5.404;2022-12-08T05:57:37;2.65;;;1.35;;
36009;SDS011;22076;52.182;5.404;2022-12-08T06:00:06;1.95;;;1.13;;
36009;SDS011;22076;52.182;5.404;2022-12-08T06:02:33;3.70;;;1.67;;
36009;SDS011;22076;52.182;5.404;2022-12-08T06:05:00;1.85;;;1.27;;
36009;SDS011;22076;52.182;5.404;2022-12-08T06:07:27;2.88;;;1.27;;
36009;SDS011;22076;52.182;5.404;2022-12-08T06:09:53;1.70;;;1.40;;
36009;SDS011;22076;52.182;5.404;2022-12-08T06:12:20;1.88;;;1.10;;
36009;SDS011;22076;52.182;5.404;2022-12-08T06:14:46;2.17;;;1.58;;
36009;SDS011;22076;52.182;5.404;2022-12-08T06:17:14;2.88;;;1.83;;
36009;SDS011;22076;52.182;5.404;2022-12-08T06:19:41;1.75;;;1.35;;
36009;SDS011;22076;52.182;5.404;2022-12-08T06:22:07;2.97;;;1.67;;
36009;SDS011;22076;52.182;5.404;2022-12-08T06:24:34;3.10;;;1.45;;
36009;SDS011;22076;52.182;5.404;2022-12-08T06:27:01;2.88;;;1.70;;
36009;SDS011;22076;52.182;5.404;2022-12-08T06:29:27;2.85;;;1.40;;
36009;SDS011;22076;52.182;5.404;2022-12-08T06:31:54;2.95;;;1.48;;
36009;SDS011;22076;52.182;5.404;2022-12-08T06:34:22;2.13;;;1.25;;
36009;SDS011;22076;52.182;5.404;2022-12-08T06:36:48;2.60;;;1.23;;
36009;SDS011;22076;52.182;5.404;2022-12-08T06:39:15;3.95;;;1.83;;
36009;SDS011;22076;52.182;5.404;2022-12-08T06:41:41;4.13;;;1.60;;
36009;SDS011;22076;52.182;5.404;2022-12-08T06:44:21;2.60;;;1.20;;
36009;SDS011;22076;52.182;5.404;2022-12-08T06:46:48;4.95;;;1.30;;
36009;SDS011;22076;52.182;5.404;2022-12-08T06:49:15;3.42;;;1.45;;
36009;SDS011;22076;52.182;5.404;2022-12-08T06:51:43;2.50;;;0.93;;
36009;SDS011;22076;52.182;5.404;2022-12-08T06:54:09;1.85;;;1.00;;
36009;SDS011;22076;52.182;5.404;2022-12-08T06:56:36;2.63;;;1.27;;
36009;SDS011;22076;52.182;5.404;2022-12-08T06:59:02;1.90;;;1.10;;
36009;SDS011;22076;52.182;5.404;2022-12-08T07:01:29;2.65;;;1.30;;
36009;SDS011;22076;52.182;5.404;2022-12-08T07:03:55;2.58;;;1.20;;
36009;SDS011;22076;52.182;5.404;2022-12-08T07:06:22;1.25;;;0.90;;
36009;SDS011;22076;52.182;5.404;2022-12-08T07:08:51;1.50;;;1.05;;
36009;SDS011;22076;52.182;5.404;2022-12-08T07:11:17;3.60;;;0.93;;
36009;SDS011;22076;52.182;5.404;2022-12-08T07:13:44;1.48;;;0.98;;
36009;SDS011;22076;52.182;5.404;2022-12-08T07:16:10;2.25;;;1.08;;
36009;SDS011;22076;52.182;5.404;2022-12-08T07:18:37;3.20;;;1.00;;
36009;SDS011;22076;52.182;5.404;2022-12-08T07:21:06;3.85;;;0.82;;
36009;SDS011;22076;52.182;5.404;2022-12-08T07:23:34;3.83;;;1.30;;
36009;SDS011;22076;52.182;5.404;2022-12-08T07:26:02;4.10;;;1.23;;
36009;SDS011;22076;52.182;5.404;2022-12-08T07:28:30;7.03;;;1.35;;
36009;SDS011;22076;52.182;5.404;2022-12-08T07:30:57;2.60;;;1.27;;
36009;SDS011;22076;52.182;5.404;2022-12-08T07:33:24;5.25;;;1.63;;
36009;SDS011;22076;52.182;5.404;2022-12-08T07:35:54;4.22;;;1.83;;
36009;SDS011;22076;52.182;5.404;2022-12-08T07:38:20;6.40;;;2.15;;
36009;SDS011;22076;52.182;5.404;2022-12-08T07:40:47;4.03;;;1.83;;
36009;SDS011;22076;52.182;5.404;2022-12-08T07:43:15;4.00;;;2.38;;
36009;SDS011;22076;52.182;5.404;2022-12-08T07:45:41;5.07;;;3.00;;
36009;SDS011;22076;52.182;5.404;2022-12-08T07:48:08;6.22;;;2.70;;
36009;SDS011;22076;52.182;5.404;2022-12-08T07:50:34;5.50;;;2.83;;
36009;SDS011;22076;52.182;5.404;2022-12-08T07:53:01;5.78;;;3.28;;
36009;SDS011;22076;52.182;5.404;2022-12-08T07:55:28;8.98;;;4.20;;
36009;SDS011;22076;52.182;5.404;2022-12-08T07:57:54;5.35;;;3.60;;
36009;SDS011;22076;52.182;5.404;2022-12-08T08:00:22;6.97;;;3.47;;
36009;SDS011;22076;52.182;5.404;2022-12-08T08:02:49;4.65;;;3.45;;
36009;SDS011;22076;52.182;5.404;2022-12-08T08:05:16;7.78;;;4.03;;
36009;SDS011;22076;52.182;5.404;2022-12-08T08:07:42;8.52;;;3.97;;
36009;SDS011;22076;52.182;5.404;2022-12-08T08:10:11;4.93;;;3.00;;
36009;SDS011;22076;52.182;5.404;2022-12-08T08:12:38;6.53;;;3.55;;
36009;SDS011;22076;52.182;5.404;2022-12-08T08:15:05;7.43;;;4.68;;
36009;SDS011;22076;52.182;5.404;2022-12-08T08:17:35;5.53;;;2.75;;
36009;SDS011;22076;52.182;5.404;2022-12-08T08:20:02;10.10;;;4.25;;
36009;SDS011;22076;52.182;5.404;2022-12-08T08:22:30;4.68;;;2.45;;
36009;SDS011;22076;52.182;5.404;2022-12-08T08:24:58;5.40;;;3.20;;
36009;SDS011;22076;52.182;5.404;2022-12-08T08:27:24;6.53;;;3.40;;
36009;SDS011;22076;52.182;5.404;2022-12-08T08:29:51;6.47;;;3.75;;
36009;SDS011;22076;52.182;5.404;2022-12-08T08:32:18;6.55;;;2.90;;
36009;SDS011;22076;52.182;5.404;2022-12-08T08:34:46;8.05;;;4.00;;
36009;SDS011;22076;52.182;5.404;2022-12-08T08:37:12;7.97;;;3.53;;
36009;SDS011;22076;52.182;5.404;2022-12-08T08:39:39;5.55;;;3.22;;
36009;SDS011;22076;52.182;5.404;2022-12-08T08:42:07;5.53;;;3.05;;
36009;SDS011;22076;52.182;5.404;2022-12-08T08:44:34;5.60;;;2.72;;
36009;SDS011;22076;52.182;5.404;2022-12-08T08:47:02;2.80;;;2.13;;
36009;SDS011;22076;52.182;5.404;2022-12-08T08:49:29;3.83;;;2.38;;
36009;SDS011;22076;52.182;5.404;2022-12-08T08:51:57;7.57;;;2.55;;
36009;SDS011;22076;52.182;5.404;2022-12-08T08:54:23;4.70;;;1.90;;
36009;SDS011;22076;52.182;5.404;2022-12-08T08:56:50;4.97;;;2.20;;
36009;SDS011;22076;52.182;5.404;2022-12-08T08:59:18;3.90;;;1.75;;
36009;SDS011;22076;52.182;5.404;2022-12-08T09:01:44;3.30;;;1.80;;
36009;SDS011;22076;52.182;5.404;2022-12-08T09:04:11;1.95;;;1.23;;
36009;SDS011;22076;52.182;5.404;2022-12-08T09:06:38;2.42;;;1.85;;
36009;SDS011;22076;52.182;5.404;2022-12-08T09:09:06;4.10;;;1.95;;
36009;SDS011;22076;52.182;5.404;2022-12-08T09:11:32;2.78;;;1.90;;
36009;SDS011;22076;52.182;5.404;2022-12-08T09:14:00;1.95;;;1.70;;
36009;SDS011;22076;52.182;5.404;2022-12-08T09:16:27;4.75;;;2.10;;
36009;SDS011;22076;52.182;5.404;2022-12-08T09:18:54;3.45;;;1.88;;
36009;SDS011;22076;52.182;5.404;2022-12-08T09:21:21;2.67;;;1.52;;
36009;SDS011;22076;52.182;5.404;2022-12-08T09:23:50;2.80;;;1.58;;
36009;SDS011;22076;52.182;5.404;2022-12-08T09:26:18;2.70;;;1.60;;
36009;SDS011;22076;52.182;5.404;2022-12-08T09:28:46;1.80;;;1.45;;
36009;SDS011;22076;52.182;5.404;2022-12-08T09:31:14;2.88;;;1.55;;
36009;SDS011;22076;52.182;5.404;2022-12-08T09:33:41;1.98;;;1.50;;
36009;SDS011;22076;52.182;5.404;2022-12-08T09:36:08;3.70;;;1.42;;
36009;SDS011;22076;52.182;5.404;2022-12-08T09:38:35;3.75;;;1.60;;
36009;SDS011;22076;52.182;5.404;2022-12-08T09:41:03;6.63;;;1.90;;
36009;SDS011;22076;52.182;5.404;2022-12-08T09:43:38;3.90;;;1.60;;
36009;SDS011;22076;52.182;5.404;2022-12-08T09:46:11;2.45;;;1.77;;
36009;SDS011;22076;52.182;5.404;2022-12-08T09:48:40;4.38;;;2.47;;
36009;SDS011;22076;52.182;5.404;2022-12-08T09:51:10;3.00;;;2.05;;
36009;SDS011;22076;52.182;5.404;2022-12-08T09:53:41;3.45;;;1.92;;
36009;SDS011;22076;52.182;5.404;2022-12-08T09:56:11;4.85;;;1.65;;
36009;SDS011;22076;52.182;5.404;2022-12-08T09:58:44;2.03;;;1.40;;
36009;SDS011;22076;52.182;5.404;2022-12-08T10:01:14;5.43;;;2.13;;
36009;SDS011;22076;52.182;5.404;2022-12-08T10:03:41;4.43;;;1.95;;
36009;SDS011;22076;52.182;5.404;2022-12-08T10:06:11;2.67;;;1.65;;
36009;SDS011;22076;52.182;5.404;2022-12-08T10:08:46;4.57;;;2.10;;
36009;SDS011;22076;52.182;5.404;2022-12-08T10:11:21;2.67;;;2.20;;
36009;SDS011;22076;52.182;5.404;2022-12-08T10:13:54;2.70;;;1.80;;
36009;SDS011;22076;52.182;5.404;2022-12-08T10:16:26;4.03;;;1.77;;
36009;SDS011;22076;52.182;5.404;2022-12-08T10:18:59;2.20;;;1.40;;
36009;SDS011;22076;52.182;5.404;2022-12-08T10:21:27;3.40;;;1.95;;
36009;SDS011;22076;52.182;5.404;2022-12-08T10:23:56;6.22;;;2.13;;
36009;SDS011;22076;52.182;5.404;2022-12-08T10:26:27;6.63;;;2.28;;
36009;SDS011;22076;52.182;5.404;2022-12-08T10:28:58;2.53;;;1.60;;
36009;SDS011;22076;52.182;5.404;2022-12-08T10:31:28;2.47;;;1.10;;
36009;SDS011;22076;52.182;5.404;2022-12-08T10:33:56;3.03;;;1.60;;
36009;SDS011;22076;52.182;5.404;2022-12-08T10:36:27;2.90;;;1.70;;
36009;SDS011;22076;52.182;5.404;2022-12-08T10:39:19;5.32;;;1.30;;
36009;SDS011;22076;52.182;5.404;2022-12-08T10:44:37;2.33;;;1.20;;
36009;SDS011;22076;52.182;5.404;2022-12-08T10:47:12;3.95;;;1.20;;
36009;SDS011;22076;52.182;5.404;2022-12-08T10:49:39;2.33;;;1.50;;
36009;SDS011;22076;52.182;5.404;2022-12-08T10:52:08;1.50;;;1.00;;
36009;SDS011;22076;52.182;5.404;2022-12-08T10:54:35;3.60;;;1.10;;
36009;SDS011;22076;52.182;5.404;2022-12-08T10:57:02;1.73;;;1.08;;
36009;SDS011;22076;52.182;5.404;2022-12-08T10:59:29;3.00;;;1.30;;
36009;SDS011;22076;52.182;5.404;2022-12-08T11:01:59;2.75;;;1.10;;
36009;SDS011;22076;52.182;5.404;2022-12-08T11:04:29;2.67;;;1.30;;
36009;SDS011;22076;52.182;5.404;2022-12-08T11:06:59;0.98;;;0.70;;
36009;SDS011;22076;52.182;5.404;2022-12-08T11:09:36;2.42;;;1.10;;
36009;SDS011;22076;52.182;5.404;2022-12-08T11:12:05;1.50;;;1.15;;
36009;SDS011;22076;52.182;5.404;2022-12-08T11:14:35;1.90;;;1.10;;
36009;SDS011;22076;52.182;5.404;2022-12-08T11:17:15;3.88;;;1.40;;
36009;SDS011;22076;52.182;5.404;2022-12-08T11:19:44;1.30;;;1.08;;
36009;SDS011;22076;52.182;5.404;2022-12-08T11:22:20;3.47;;;1.30;;
36009;SDS011;22076;52.182;5.404;2022-12-08T11:24:55;1.80;;;1.33;;
36009;SDS011;22076;52.182;5.404;2022-12-08T11:27:22;2.92;;;1.40;;
36009;SDS011;22076;52.182;5.404;2022-12-08T11:29:48;2.40;;;1.60;;
36009;SDS011;22076;52.182;5.404;2022-12-08T11:32:16;2.33;;;1.50;;
36009;SDS011;22076;52.182;5.404;2022-12-08T11:34:44;1.98;;;1.48;;
36009;SDS011;22076;52.182;5.404;2022-12-08T11:37:14;3.30;;;1.77;;
36009;SDS011;22076;52.182;5.404;2022-12-08T11:39:45;3.33;;;1.83;;
36009;SDS011;22076;52.182;5.404;2022-12-08T11:42:15;1.85;;;1.58;;
36009;SDS011;22076;52.182;5.404;2022-12-08T11:44:45;2.55;;;1.58;;
36009;SDS011;22076;52.182;5.404;2022-12-08T11:47:17;6.53;;;2.20;;
36009;SDS011;22076;52.182;5.404;2022-12-08T11:49:45;1.92;;;1.35;;
36009;SDS011;22076;52.182;5.404;2022-12-08T11:52:16;2.88;;;1.52;;
36009;SDS011;22076;52.182;5.404;2022-12-08T11:54:46;4.22;;;2.15;;
36009;SDS011;22076;52.182;5.404;2022-12-08T11:57:15;5.75;;;1.70;;
36009;SDS011;22076;52.182;5.404;2022-12-08T11:59:46;2.15;;;1.45;;
36009;SDS011;22076;52.182;5.404;2022-12-08T12:02:14;3.83;;;1.85;;
36009;SDS011;22076;52.182;5.404;2022-12-08T12:04:45;3.00;;;2.08;;
36009;SDS011;22076;52.182;5.404;2022-12-08T12:07:28;3.03;;;2.00;;
36009;SDS011;22076;52.182;5.404;2022-12-08T12:10:24;3.50;;;2.00;;
36009;SDS011;22076;52.182;5.404;2022-12-08T12:13:00;3.28;;;2.33;;
36009;SDS011;22076;52.182;5.404;2022-12-08T12:15:51;3.28;;;1.67;;
36009;SDS011;22076;52.182;5.404;2022-12-08T12:18:40;2.72;;;1.67;;
36009;SDS011;22076;52.182;5.404;2022-12-08T12:21:11;2.53;;;1.70;;
36009;SDS011;22076;52.182;5.404;2022-12-08T12:23:41;2.60;;;1.90;;
36009;SDS011;22076;52.182;5.404;2022-12-08T12:26:15;2.30;;;2.03;;
36009;SDS011;22076;52.182;5.404;2022-12-08T12:28:46;4.30;;;3.10;;
36009;SDS011;22076;52.182;5.404;2022-12-08T12:31:16;3.40;;;2.00;;
36009;SDS011;22076;52.182;5.404;2022-12-08T12:33:45;3.75;;;2.35;;
36009;SDS011;22076;52.182;5.404;2022-12-08T12:36:12;4.13;;;2.38;;
36009;SDS011;22076;52.182;5.404;2022-12-08T12:38:42;5.45;;;2.75;;
36009;SDS011;22076;52.182;5.404;2022-12-08T12:41:31;6.65;;;3.35;;
36009;SDS011;22076;52.182;5.404;2022-12-08T12:44:20;3.30;;;2.25;;
36009;SDS011;22076;52.182;5.404;2022-12-08T12:46:56;4.90;;;2.10;;
36009;SDS011;22076;52.182;5.404;2022-12-08T12:58:19;3.58;;;2.38;;
36009;SDS011;22076;52.182;5.404;2022-12-08T13:04:07;5.40;;;3.05;;
36009;SDS011;22076;52.182;5.404;2022-12-08T13:06:36;7.15;;;3.25;;
36009;SDS011;22076;52.182;5.404;2022-12-08T13:09:05;5.90;;;3.60;;
36009;SDS011;22076;52.182;5.404;2022-12-08T13:11:43;5.53;;;3.58;;
36009;SDS011;22076;52.182;5.404;2022-12-08T13:14:25;3.60;;;2.38;;
36009;SDS011;22076;52.182;5.404;2022-12-08T13:16:53;2.53;;;2.25;;
36009;SDS011;22076;52.182;5.404;2022-12-08T13:19:21;3.85;;;2.53;;
36009;SDS011;22076;52.182;5.404;2022-12-08T13:21:49;6.70;;;3.15;;
36009;SDS011;22076;52.182;5.404;2022-12-08T13:24:24;7.70;;;3.47;;
36009;SDS011;22076;52.182;5.404;2022-12-08T13:32:59;4.63;;;2.80;;
36009;SDS011;22076;52.182;5.404;2022-12-08T13:35:26;5.43;;;2.75;;
36009;SDS011;22076;52.182;5.404;2022-12-08T13:37:54;4.75;;;2.25;;
36009;SDS011;22076;52.182;5.404;2022-12-08T13:40:21;2.90;;;2.08;;
36009;SDS011;22076;52.182;5.404;2022-12-08T13:42:53;5.82;;;3.20;;
36009;SDS011;22076;52.182;5.404;2022-12-08T13:45:26;8.00;;;2.92;;
36009;SDS011;22076;52.182;5.404;2022-12-08T13:47:55;3.72;;;2.28;;
36009;SDS011;22076;52.182;5.404;2022-12-08T13:50:24;4.00;;;2.47;;
36009;SDS011;22076;52.182;5.404;2022-12-08T13:52:56;5.45;;;2.80;;
36009;SDS011;22076;52.182;5.404;2022-12-08T13:55:24;5.40;;;2.72;;
36009;SDS011;22076;52.182;5.404;2022-12-08T13:57:54;4.15;;;2.50;;
36009;SDS011;22076;52.182;5.404;2022-12-08T14:00:21;7.80;;;2.83;;
36009;SDS011;22076;52.182;5.404;2022-12-08T14:02:51;4.53;;;2.95;;
36009;SDS011;22076;52.182;5.404;2022-12-08T14:05:21;4.93;;;3.22;;
36009;SDS011;22076;52.182;5.404;2022-12-08T14:07:50;3.83;;;2.80;;
36009;SDS011;22076;52.182;5.404;2022-12-08T14:10:21;5.72;;;2.70;;
36009;SDS011;22076;52.182;5.404;2022-12-08T14:12:50;3.78;;;2.95;;
36009;SDS011;22076;52.182;5.404;2022-12-08T14:15:19;5.30;;;2.80;;
36009;SDS011;22076;52.182;5.404;2022-12-08T14:17:49;3.55;;;2.67;;
36009;SDS011;22076;52.182;5.404;2022-12-08T14:20:18;4.90;;;3.72;;
36009;SDS011;22076;52.182;5.404;2022-12-08T14:22:47;5.50;;;3.42;;
36009;SDS011;22076;52.182;5.404;2022-12-08T14:25:17;5.30;;;3.58;;
36009;SDS011;22076;52.182;5.404;2022-12-08T14:27:45;7.95;;;3.50;;
36009;SDS011;22076;52.182;5.404;2022-12-08T14:30:15;4.13;;;2.97;;
36009;SDS011;22076;52.182;5.404;2022-12-08T14:32:46;4.63;;;3.13;;
36009;SDS011;22076;52.182;5.404;2022-12-08T14:35:18;6.60;;;3.42;;
36009;SDS011;22076;52.182;5.404;2022-12-08T14:37:47;6.18;;;3.42;;
36009;SDS011;22076;52.182;5.404;2022-12-08T14:40:18;7.88;;;4.10;;
36009;SDS011;22076;52.182;5.404;2022-12-08T14:42:49;4.38;;;3.35;;
36009;SDS011;22076;52.182;5.404;2022-12-08T14:45:16;4.90;;;2.92;;
36009;SDS011;22076;52.182;5.404;2022-12-08T14:47:44;4.78;;;3.58;;
36009;SDS011;22076;52.182;5.404;2022-12-08T14:53:10;9.25;;;4.55;;
36009;SDS011;22076;52.182;5.404;2022-12-08T14:55:38;6.15;;;3.53;;
36009;SDS011;22076;52.182;5.404;2022-12-08T14:58:06;8.05;;;4.90;;
36009;SDS011;22076;52.182;5.404;2022-12-08T15:00:43;6.22;;;4.80;;
36009;SDS011;22076;52.182;5.404;2022-12-08T15:03:11;7.22;;;4.35;;
36009;SDS011;22076;52.182;5.404;2022-12-08T15:05:38;5.75;;;3.35;;
36009;SDS011;22076;52.182;5.404;2022-12-08T15:08:05;6.03;;;4.18;;
36009;SDS011;22076;52.182;5.404;2022-12-08T15:10:33;5.03;;;3.92;;
36009;SDS011;22076;52.182;5.404;2022-12-08T15:13:06;5.60;;;3.97;;
36009;SDS011;22076;52.182;5.404;2022-12-08T15:15:47;6.20;;;3.10;;
36009;SDS011;22076;52.182;5.404;2022-12-08T15:18:16;8.32;;;5.10;;
36009;SDS011;22076;52.182;5.404;2022-12-08T15:20:44;5.28;;;4.00;;
36009;SDS011;22076;52.182;5.404;2022-12-08T15:23:20;10.02;;;6.78;;
36009;SDS011;22076;52.182;5.404;2022-12-08T15:25:48;11.65;;;5.90;;
36009;SDS011;22076;52.182;5.404;2022-12-08T15:28:17;7.10;;;5.15;;
36009;SDS011;22076;52.182;5.404;2022-12-08T15:30:45;6.28;;;4.57;;